createdAt,value
2023-02-11T00:01:31.564Z,102598.09
2023-02-11T00:04:34.487Z,102598.81
2023-02-11T00:07:37.805Z,102593.66
2023-02-11T00:10:40.689Z,102589.31
2023-02-11T00:13:44.394Z,102598.16
2023-02-11T00:16:47.360Z,102599.81
2023-02-11T00:19:51.433Z,102604.44
2023-02-11T00:22:54.327Z,102595.09
2023-02-11T00:25:56.977Z,102608.56
2023-02-11T00:29:00.933Z,102607.47
2023-02-11T00:32:05.378Z,102610.94
2023-02-11T00:35:08.591Z,102600.22
2023-02-11T00:38:11.234Z,102598.03
2023-02-11T00:41:15.000Z,102613.94
2023-02-11T00:44:17.797Z,102596.88
2023-02-11T00:47:23.544Z,102596.59
2023-02-11T00:50:26.432Z,102591.41
2023-02-11T00:53:31.098Z,102589.37
2023-02-11T00:56:33.887Z,102587.66
2023-02-11T00:59:37.010Z,102576.81
2023-02-11T01:02:39.844Z,102567.22
2023-02-11T01:05:42.821Z,102563.62
2023-02-11T01:08:45.561Z,102565.37
2023-02-11T01:11:48.639Z,102565.13
2023-02-11T01:14:51.346Z,102559.69
2023-02-11T01:17:54.429Z,102555.03
2023-02-11T01:20:57.044Z,102549.00
2023-02-11T01:23:59.992Z,102549.59
2023-02-11T01:27:02.631Z,102558.59
2023-02-11T01:30:08.581Z,102551.38
2023-02-11T01:33:12.489Z,102545.09
2023-02-11T01:36:15.440Z,102555.34
2023-02-11T01:39:18.107Z,102543.50
2023-02-11T01:42:23.731Z,102540.41
2023-02-11T01:45:52.801Z,102533.22
2023-02-11T01:49:02.774Z,102531.13
2023-02-11T01:52:11.284Z,102529.94
2023-02-11T01:55:33.087Z,102528.75
2023-02-11T01:58:39.546Z,102523.31
2023-02-11T02:01:48.026Z,102520.00
2023-02-11T02:04:59.162Z,102517.63
2023-02-11T02:08:25.913Z,102505.75
2023-02-11T02:11:29.006Z,102507.31
2023-02-11T02:14:31.652Z,102510.00
2023-02-11T02:17:42.511Z,102505.53
2023-02-11T02:21:41.600Z,102491.28
2023-02-11T02:25:35.684Z,102500.22
2023-02-11T02:29:09.279Z,102476.06
2023-02-11T02:32:26.960Z,102487.87
2023-02-11T02:35:44.795Z,102495.44
2023-02-11T02:39:04.343Z,102489.56
2023-02-11T02:42:07.522Z,102490.97
2023-02-11T02:45:12.009Z,102481.31
2023-02-11T02:48:29.954Z,102474.37
2023-02-11T02:52:05.670Z,102484.81
2023-02-11T02:55:29.785Z,102487.37
2023-02-11T02:58:51.626Z,102486.44
2023-02-11T03:02:13.184Z,102482.19
2023-02-11T03:05:27.857Z,102481.59
2023-02-11T03:08:39.172Z,102489.88
2023-02-11T03:11:42.200Z,102480.41
2023-02-11T03:14:46.223Z,102481.44
2023-02-11T03:17:52.502Z,102478.09
2023-02-11T03:20:56.917Z,102455.38
2023-02-11T03:24:05.973Z,102458.97
2023-02-11T03:27:41.544Z,102463.22
2023-02-11T03:30:56.176Z,102471.34
2023-02-11T03:34:30.369Z,102459.16
2023-02-11T03:37:52.044Z,102464.13
2023-02-11T03:40:56.700Z,102459.72
2023-02-11T03:44:01.084Z,102460.25
2023-02-11T03:47:08.907Z,102457.31
2023-02-11T03:50:14.824Z,102463.59
2023-02-11T03:53:19.069Z,102463.34
2023-02-11T03:56:26.448Z,102447.28
2023-02-11T03:59:29.385Z,102451.97
2023-02-11T04:02:35.976Z,102438.12
2023-02-11T04:05:39.174Z,102464.59
2023-02-11T04:08:41.799Z,102450.50
2023-02-11T04:11:44.676Z,102451.28
2023-02-11T04:14:47.391Z,102450.28
2023-02-11T04:17:50.531Z,102447.81
2023-02-11T04:20:53.212Z,102449.06
2023-02-11T04:23:56.098Z,102441.81
2023-02-11T04:26:58.918Z,102444.44
2023-02-11T04:30:02.581Z,102440.16
2023-02-11T04:33:05.308Z,102436.28
2023-02-11T04:36:08.587Z,102433.28
2023-02-11T04:39:11.186Z,102430.16
2023-02-11T04:42:14.256Z,102417.03
2023-02-11T04:45:16.946Z,102427.69
2023-02-11T04:48:20.159Z,102415.25
2023-02-11T04:51:23.547Z,102419.44
2023-02-11T04:54:26.490Z,102409.84
2023-02-11T04:57:29.179Z,102411.69
2023-02-11T05:00:32.160Z,102401.84
2023-02-11T05:03:35.179Z,102395.22
2023-02-11T05:06:39.778Z,102401.09
2023-02-11T05:09:42.289Z,102402.56
2023-02-11T05:12:45.205Z,102398.91
2023-02-11T05:15:47.921Z,102387.66
2023-02-11T05:18:52.613Z,102401.94
2023-02-11T05:22:02.498Z,102397.16
2023-02-11T05:25:06.550Z,102393.56
2023-02-11T05:28:09.404Z,102390.53
2023-02-11T05:31:14.660Z,102397.97
2023-02-11T05:34:17.513Z,102402.66
2023-02-11T05:37:20.396Z,102400.66
2023-02-11T05:40:23.078Z,102389.06
2023-02-11T05:43:26.289Z,102395.00
2023-02-11T05:46:29.006Z,102392.56
2023-02-11T05:49:32.161Z,102392.16
2023-02-11T05:52:34.786Z,102391.72
2023-02-11T05:55:38.500Z,102396.44
2023-02-11T05:58:41.451Z,102386.63
2023-02-11T06:01:44.552Z,102395.91
2023-02-11T06:04:47.493Z,102398.06
2023-02-11T06:07:50.193Z,102383.63
2023-02-11T06:10:53.193Z,102393.78
2023-02-11T06:13:55.833Z,102392.97
2023-02-11T06:16:58.746Z,102387.00
2023-02-11T06:20:02.967Z,102399.56
2023-02-11T06:23:05.904Z,102389.47
2023-02-11T06:26:15.717Z,102396.66
2023-02-11T06:29:18.639Z,102399.44
2023-02-11T06:32:42.163Z,102397.88
2023-02-11T06:35:44.109Z,102383.72
2023-02-11T06:38:47.073Z,102401.41
2023-02-11T06:41:50.138Z,102405.50
2023-02-11T06:44:52.758Z,102405.03
2023-02-11T06:47:55.716Z,102409.19
2023-02-11T06:51:03.260Z,102407.03
2023-02-11T06:54:07.186Z,102414.34
2023-02-11T06:57:09.766Z,102415.94
2023-02-11T07:00:13.600Z,102407.72
2023-02-11T07:03:16.434Z,102419.84
2023-02-11T07:06:22.343Z,102413.28
2023-02-11T07:09:25.430Z,102412.13
2023-02-11T07:12:28.495Z,102414.72
2023-02-11T07:15:31.101Z,102405.84
2023-02-11T07:18:34.562Z,102407.72
2023-02-11T07:21:37.557Z,102403.03
2023-02-11T07:24:40.440Z,102402.50
2023-02-11T07:27:43.070Z,102397.91
2023-02-11T07:30:46.022Z,102413.56
2023-02-11T07:33:49.002Z,102401.41
2023-02-11T07:36:51.943Z,102408.09
2023-02-11T07:39:54.545Z,102400.31
2023-02-11T07:42:57.837Z,102407.62
2023-02-11T07:46:04.839Z,102400.59
2023-02-11T07:49:07.857Z,102394.31
2023-02-11T07:52:10.400Z,102387.59
2023-02-11T07:55:13.350Z,102385.47
2023-02-11T07:58:15.919Z,102384.22
2023-02-11T08:01:22.754Z,102375.56
2023-02-11T08:04:25.690Z,102381.69
2023-02-11T08:07:29.782Z,102368.06
2023-02-11T08:10:32.726Z,102377.69
2023-02-11T08:13:36.204Z,102380.22
2023-02-11T08:16:39.843Z,102373.22
2023-02-11T08:19:42.677Z,102374.44
2023-02-11T08:22:45.570Z,102372.50
2023-02-11T08:25:48.329Z,102370.13
2023-02-11T08:28:53.538Z,102375.09
2023-02-11T08:31:56.136Z,102363.69
2023-02-11T08:34:59.068Z,102379.22
2023-02-11T08:38:01.685Z,102363.47
2023-02-11T08:41:04.921Z,102363.06
2023-02-11T08:44:07.687Z,102350.91
2023-02-11T08:47:10.606Z,102353.59
2023-02-11T08:50:13.322Z,102359.00
2023-02-11T08:53:16.260Z,102349.50
2023-02-11T08:56:21.052Z,102350.59
2023-02-11T08:59:24.084Z,102347.25
2023-02-11T09:02:27.543Z,102345.59
2023-02-11T09:05:30.545Z,102356.03
2023-02-11T09:08:41.618Z,102352.09
2023-02-11T09:11:45.752Z,102339.16
2023-02-11T09:14:48.376Z,102353.31
2023-02-11T09:17:51.281Z,102344.87
2023-02-11T09:20:54.350Z,102343.88
2023-02-11T09:23:57.621Z,102346.97
2023-02-11T09:27:00.262Z,102340.41
2023-02-11T09:30:03.851Z,102347.09
2023-02-11T09:33:06.545Z,102342.72
2023-02-11T09:36:09.663Z,102330.78
2023-02-11T09:39:17.112Z,102340.16
2023-02-11T09:42:39.622Z,102342.09
2023-02-11T09:45:42.690Z,102328.78
2023-02-11T09:48:49.346Z,102324.69
2023-02-11T09:51:59.214Z,102317.87
2023-02-11T09:55:23.169Z,102325.88
2023-02-11T09:58:29.721Z,102318.91
2023-02-11T10:01:35.447Z,102315.22
2023-02-11T10:05:05.641Z,102315.22
2023-02-11T10:08:36.801Z,102297.72
2023-02-11T10:12:01.213Z,102315.72
2023-02-11T10:15:20.682Z,102314.47
2023-02-11T10:18:46.629Z,102296.75
2023-02-11T10:22:22.435Z,102296.62
2023-02-11T10:25:45.174Z,102289.59
2023-02-11T10:28:51.097Z,102290.09
2023-02-11T10:31:56.593Z,102278.00
2023-02-11T10:35:04.843Z,102276.59
2023-02-11T10:38:09.082Z,102251.78
2023-02-11T10:41:20.338Z,102260.94
2023-02-11T10:44:28.932Z,102251.34
2023-02-11T10:47:37.626Z,102246.38
2023-02-11T10:50:40.657Z,102238.41
2023-02-11T10:53:44.092Z,102235.19
2023-02-11T10:56:50.574Z,102229.78
2023-02-11T10:59:59.338Z,102228.44
2023-02-11T11:03:05.580Z,102224.44
2023-02-11T11:06:11.430Z,102221.94
2023-02-11T11:09:31.138Z,102216.31
2023-02-11T11:12:45.640Z,102207.97
2023-02-11T11:16:09.651Z,102206.16
2023-02-11T11:19:13.702Z,102203.31
2023-02-11T11:22:22.731Z,102202.53
2023-02-11T11:25:29.546Z,102191.88
2023-02-11T11:28:58.645Z,102194.19
2023-02-11T11:32:28.032Z,102187.03
2023-02-11T11:35:34.465Z,102201.88
2023-02-11T11:38:43.729Z,102190.94
2023-02-11T11:41:55.948Z,102184.91
2023-02-11T11:45:04.765Z,102169.25
2023-02-11T11:48:33.087Z,102173.34
2023-02-11T11:51:39.259Z,102171.31
2023-02-11T11:54:50.229Z,102159.84
2023-02-11T11:57:53.381Z,102158.59
2023-02-11T12:01:08.084Z,102157.53
2023-02-11T12:04:16.746Z,102161.16
2023-02-11T12:07:31.246Z,102156.63
2023-02-11T12:10:50.556Z,102154.03
2023-02-11T12:14:13.539Z,102157.97
2023-02-11T12:17:47.342Z,102151.81
2023-02-11T12:21:08.143Z,102145.56
2023-02-11T12:24:31.044Z,102145.75
2023-02-11T12:27:42.545Z,102126.38
2023-02-11T12:30:51.542Z,102124.97
2023-02-11T12:34:06.226Z,102123.38
2023-02-11T12:37:31.870Z,102124.59
2023-02-11T12:40:52.709Z,102107.63
2023-02-11T12:43:56.224Z,102112.25
2023-02-11T12:47:22.023Z,102102.88
2023-02-11T12:50:34.998Z,102087.94
2023-02-11T12:53:47.978Z,102092.00
2023-02-11T12:56:53.778Z,102081.06
2023-02-11T13:00:07.066Z,102088.06
2023-02-11T13:03:09.934Z,102075.62
2023-02-11T13:06:17.897Z,102080.06
2023-02-11T13:09:30.453Z,102073.53
2023-02-11T13:12:53.946Z,102079.31
2023-02-11T13:16:01.646Z,102076.72
2023-02-11T13:19:10.489Z,102066.75
2023-02-11T13:22:39.919Z,102055.88
2023-02-11T13:25:54.878Z,102059.97
2023-02-11T13:29:27.615Z,102062.00
2023-02-11T13:32:56.168Z,102046.84
2023-02-11T13:35:58.947Z,102042.75
2023-02-11T13:39:04.720Z,102041.97
2023-02-11T13:42:15.938Z,102025.81
2023-02-11T13:45:41.002Z,102031.44
2023-02-11T13:48:53.237Z,102026.66
2023-02-11T13:51:56.923Z,102027.91
2023-02-11T13:55:05.820Z,102024.38
2023-02-11T13:58:08.675Z,102017.78
2023-02-11T14:01:11.748Z,102011.53
2023-02-11T14:04:41.023Z,102004.25
2023-02-11T14:08:28.695Z,101987.56
2023-02-11T14:11:35.206Z,101992.53
2023-02-11T14:15:17.644Z,101992.63
2023-02-11T14:18:39.740Z,101987.66
2023-02-11T14:21:44.358Z,101978.06
2023-02-11T14:24:49.310Z,101983.69
2023-02-11T14:28:08.785Z,101986.75
2023-02-11T14:31:34.243Z,101979.97
2023-02-11T14:34:58.933Z,101975.87
2023-02-11T14:38:22.731Z,101973.94
2023-02-11T14:41:29.506Z,101965.66
2023-02-11T14:44:34.183Z,101974.12
2023-02-11T14:47:55.535Z,101971.41
2023-02-11T14:51:12.968Z,101981.03
2023-02-11T14:54:19.092Z,101978.00
2023-02-11T14:57:22.277Z,101979.03
2023-02-11T15:00:25.192Z,101976.37
2023-02-11T15:03:37.476Z,101976.53
2023-02-11T15:06:42.812Z,101964.84
2023-02-11T15:09:51.421Z,101973.28
2023-02-11T15:12:54.873Z,101977.53
2023-02-11T15:16:05.158Z,101966.59
2023-02-11T15:19:19.201Z,101954.72
2023-02-11T15:22:26.225Z,101957.16
2023-02-11T15:25:34.352Z,101963.66
2023-02-11T15:28:37.472Z,101973.00
2023-02-11T15:31:40.262Z,101981.72
2023-02-11T15:34:45.375Z,101971.72
2023-02-11T15:37:50.623Z,101969.91
2023-02-11T15:41:02.168Z,101970.56
2023-02-11T15:44:05.380Z,101961.38
2023-02-11T15:47:20.606Z,101948.53
2023-02-11T15:50:26.888Z,101942.84
2023-02-11T15:53:43.148Z,101935.34
2023-02-11T15:56:50.148Z,101942.59
2023-02-11T15:59:54.904Z,101952.72
2023-02-11T16:02:57.794Z,101944.16
2023-02-11T16:06:21.160Z,101955.37
2023-02-11T16:09:36.805Z,101963.19
2023-02-11T16:12:39.939Z,101961.56
2023-02-11T16:15:52.023Z,101944.84
2023-02-11T16:19:04.982Z,101947.00
2023-02-11T16:22:15.785Z,101959.84
2023-02-11T16:25:22.885Z,101958.78
2023-02-11T16:28:26.127Z,101951.22
2023-02-11T16:31:43.749Z,101956.50
2023-02-11T16:34:48.332Z,101949.22
2023-02-11T16:37:51.851Z,101934.31
2023-02-11T16:40:54.745Z,101939.09
2023-02-11T16:43:58.915Z,101943.09
2023-02-11T16:47:03.901Z,101943.06
2023-02-11T16:50:19.366Z,101943.56
2023-02-11T16:53:24.238Z,101935.37
2023-02-11T16:56:28.093Z,101919.88
2023-02-11T16:59:30.805Z,101930.91
2023-02-11T17:02:36.196Z,101924.28
2023-02-11T17:05:58.350Z,101914.41
2023-02-11T17:09:01.727Z,101911.53
2023-02-11T17:12:05.057Z,101908.94
2023-02-11T17:15:08.662Z,101891.69
2023-02-11T17:18:14.678Z,101916.84
2023-02-11T17:21:17.890Z,101905.84
2023-02-11T17:24:21.811Z,101909.69
2023-02-11T17:27:25.101Z,101903.94
2023-02-11T17:30:27.976Z,101916.81
2023-02-11T17:33:31.062Z,101921.72
2023-02-11T17:36:34.394Z,101905.66
2023-02-11T17:39:39.972Z,101900.50
2023-02-11T17:42:43.350Z,101878.47
2023-02-11T17:45:46.585Z,101880.31
2023-02-11T17:48:50.245Z,101878.13
2023-02-11T17:51:53.431Z,101874.69
2023-02-11T17:54:56.419Z,101862.75
2023-02-11T17:58:00.017Z,101874.97
2023-02-11T18:01:03.044Z,101875.84
2023-02-11T18:04:08.309Z,101881.59
2023-02-11T18:07:11.236Z,101874.13
2023-02-11T18:10:14.762Z,101873.09
2023-02-11T18:13:18.346Z,101885.69
2023-02-11T18:16:23.479Z,101880.56
2023-02-11T18:19:26.248Z,101893.97
2023-02-11T18:22:33.652Z,101880.53
2023-02-11T18:25:36.945Z,101883.12
2023-02-11T18:28:41.176Z,101882.38
2023-02-11T18:31:44.874Z,101885.25
2023-02-11T18:34:48.204Z,101886.66
2023-02-11T18:37:52.120Z,101886.22
2023-02-11T18:40:57.699Z,101883.56
2023-02-11T18:44:03.208Z,101881.72
2023-02-11T18:47:06.367Z,101875.13
2023-02-11T18:50:10.325Z,101867.44
2023-02-11T18:53:16.008Z,101865.25
2023-02-11T18:56:22.360Z,101857.34
2023-02-11T18:59:26.722Z,101862.12
2023-02-11T19:02:29.733Z,101858.81
2023-02-11T19:05:40.073Z,101867.41
2023-02-11T19:08:42.973Z,101856.13
2023-02-11T19:11:50.429Z,101862.41
2023-02-11T19:14:53.351Z,101865.81
2023-02-11T19:17:56.491Z,101860.53
2023-02-11T19:20:59.182Z,101863.75
2023-02-11T19:24:07.514Z,101856.41
2023-02-11T19:27:10.340Z,101848.66
2023-02-11T19:30:14.046Z,101860.59
2023-02-11T19:33:16.665Z,101862.16
2023-02-11T19:36:21.382Z,101862.50
2023-02-11T19:39:24.851Z,101871.03
2023-02-11T19:42:28.094Z,101864.44
2023-02-11T19:45:31.547Z,101866.91
2023-02-11T19:48:34.867Z,101864.94
2023-02-11T19:51:39.560Z,101856.78
2023-02-11T19:54:42.893Z,101858.66
2023-02-11T19:57:45.933Z,101859.81
2023-02-11T20:00:49.543Z,101868.63
2023-02-11T20:03:54.394Z,101858.78
2023-02-11T20:06:58.515Z,101851.06
2023-02-11T20:10:01.759Z,101836.09
2023-02-11T20:13:04.867Z,101825.03
2023-02-11T20:16:12.433Z,101828.88
2023-02-11T20:19:20.374Z,101833.97
2023-02-11T20:22:23.799Z,101837.91
2023-02-11T20:25:26.741Z,101833.94
2023-02-11T20:28:30.156Z,101829.72
2023-02-11T20:31:34.077Z,101826.44
2023-02-11T20:34:37.165Z,101804.88
2023-02-11T20:37:42.268Z,101809.44
2023-02-11T20:40:47.073Z,101817.09
2023-02-11T20:43:53.235Z,101815.12
2023-02-11T20:46:56.909Z,101809.94
2023-02-11T20:49:59.842Z,101806.78
2023-02-11T20:53:03.251Z,101800.97
2023-02-11T20:56:09.167Z,101805.12
2023-02-11T20:59:13.914Z,101801.09
2023-02-11T21:02:17.657Z,101803.31
2023-02-11T21:05:20.869Z,101806.31
2023-02-11T21:08:23.864Z,101792.75
2023-02-11T21:11:27.065Z,101795.06
2023-02-11T21:14:30.277Z,101790.38
2023-02-11T21:17:34.856Z,101795.59
2023-02-11T21:20:37.756Z,101794.88
2023-02-11T21:23:41.026Z,101792.59
2023-02-11T21:26:43.849Z,101788.25
2023-02-11T21:29:54.093Z,101789.16
2023-02-11T21:33:00.753Z,101785.72
2023-02-11T21:36:05.868Z,101786.37
2023-02-11T21:39:09.130Z,101776.47
2023-02-11T21:42:12.679Z,101769.84
2023-02-11T21:45:16.713Z,101781.97
2023-02-11T21:48:19.779Z,101784.19
2023-02-11T21:51:28.140Z,101781.78
2023-02-11T21:54:32.306Z,101763.88
2023-02-11T21:57:35.004Z,101762.88
2023-02-11T22:00:38.935Z,101769.56
2023-02-11T22:03:42.715Z,101776.25
2023-02-11T22:06:45.428Z,101767.69
2023-02-11T22:09:50.409Z,101761.47
2023-02-11T22:12:53.023Z,101761.44
2023-02-11T22:16:05.211Z,101761.44
2023-02-11T22:19:07.885Z,101743.72
2023-02-11T22:22:10.825Z,101763.81
2023-02-11T22:25:13.420Z,101758.06
2023-02-11T22:28:16.352Z,101760.97
2023-02-11T22:31:22.321Z,101756.44
2023-02-11T22:34:25.337Z,101748.19
2023-02-11T22:37:28.074Z,101758.06
2023-02-11T22:40:31.015Z,101760.75
2023-02-11T22:43:33.950Z,101740.62
2023-02-11T22:46:37.205Z,101747.00
2023-02-11T22:49:41.407Z,101749.09
2023-02-11T22:52:44.367Z,101753.72
2023-02-11T22:55:47.208Z,101757.75
2023-02-11T22:58:50.918Z,101758.87
2023-02-11T23:01:54.365Z,101751.94
2023-02-11T23:04:57.394Z,101749.75
2023-02-11T23:08:00.027Z,101756.59
2023-02-11T23:11:08.786Z,101748.66
2023-02-11T23:14:12.249Z,101742.44
2023-02-11T23:17:15.275Z,101733.09
2023-02-11T23:20:17.955Z,101729.63
2023-02-11T23:23:20.838Z,101736.50
2023-02-11T23:26:24.212Z,101735.56
2023-02-11T23:29:27.910Z,101725.37
2023-02-11T23:32:31.211Z,101711.31
2023-02-11T23:35:34.331Z,101712.81
2023-02-11T23:38:36.909Z,101710.50
2023-02-11T23:41:40.217Z,101700.78
2023-02-11T23:44:44.838Z,101707.91
2023-02-11T23:47:47.738Z,101710.12
2023-02-11T23:50:50.413Z,101699.84
2023-02-11T23:53:54.826Z,101715.44
2023-02-11T23:56:57.485Z,101704.47
